Time;durP1;ratioP1;P1;durP2;ratioP2;P2;SDS_P1;SDS_P2;PMS_P1;PMS_P2;Temp;Humidity;BMP_temperature;BMP_pressure;BME280_temperature;BME280_humidity;BME280_pressure;Samples;Min_cycle;Max_cycle;Signal;HPM_P1;HPM_P2
2022/11/18 00:01:19;;;;;;;2.50;0.60;;;26.30;75.60;;;;;;5074984;28;20241;-68
2022/11/18 00:03:47;;;;;;;1.93;0.50;;;26.30;78.00;;;;;;5074346;28;20315;-69
2022/11/18 00:06:21;;;;;;;1.50;0.60;;;26.40;72.20;;;;;;5074821;28;20183;-69
2022/11/18 00:08:49;;;;;;;4.33;1.13;;;26.10;72.20;;;;;;5075029;28;20683;-69
2022/11/18 00:14:21;;;;;;;5.17;0.70;;;27.10;65.40;;;;;;5074463;28;20183;-70
2022/11/18 00:16:51;;;;;;;1.57;0.40;;;25.80;62.50;;;;;;5074546;28;20184;-69
2022/11/18 00:19:25;;;;;;;1.57;0.47;;;24.30;67.40;;;;;;5074499;28;20202;-68
2022/11/18 00:21:53;;;;;;;0.97;0.50;;;23.50;82.10;;;;;;5074474;28;20598;-68
2022/11/18 00:24:21;;;;;;;1.73;0.60;;;23.90;90.80;;;;;;5074222;28;20246;-68
2022/11/18 00:26:50;;;;;;;1.90;0.67;;;24.70;91.50;;;;;;5074288;28;20179;-70
2022/11/18 00:29:18;;;;;;;1.90;0.70;;;26.00;90.30;;;;;;5074218;28;20168;-70
2022/11/18 00:31:46;;;;;;;3.50;0.90;;;26.90;66.20;;;;;;5074441;28;20184;-72
2022/11/18 00:34:16;;;;;;;3.73;0.50;;;26.20;61.30;;;;;;5074003;28;20184;-71
2022/11/18 00:36:45;;;;;;;3.03;0.60;;;24.70;68.50;;;;;;5073973;28;20221;-70
2022/11/18 00:39:15;;;;;;;3.30;0.80;;;23.70;75.10;;;;;;5074108;28;20293;-69
2022/11/18 00:44:29;;;;;;;1.93;0.60;;;23.50;86.90;;;;;;5074026;28;20194;-70
2022/11/18 00:46:56;;;;;;;1.03;0.60;;;24.30;87.40;;;;;;5073954;28;20190;-69
2022/11/18 00:49:24;;;;;;;1.53;0.53;;;24.80;79.90;;;;;;5073777;28;20191;-69
2022/11/18 00:51:52;;;;;;;4.03;0.70;;;25.70;76.40;;;;;;5073852;28;20179;-68
2022/11/18 00:54:20;;;;;;;2.60;0.50;;;25.50;66.40;;;;;;5073604;28;20259;-69
2022/11/18 00:56:48;;;;;;;2.63;0.60;;;24.50;77.80;;;;;;5073716;28;20184;-71
2022/11/18 00:59:16;;;;;;;2.17;0.50;;;24.10;83.10;;;;;;5073616;28;20208;-69
2022/11/18 01:01:44;;;;;;;1.27;0.50;;;23.70;80.50;;;;;;5073508;28;20214;-69
2022/11/18 01:04:12;;;;;;;2.27;0.67;;;23.30;81.70;;;;;;5073444;28;20253;-68
2022/11/18 01:06:40;;;;;;;3.73;0.90;;;22.70;81.30;;;;;;5073459;28;20183;-68
2022/11/18 01:09:07;;;;;;;0.83;0.60;;;22.60;85.70;;;;;;5073735;28;20176;-69
2022/11/18 01:14:23;;;;;;;1.67;0.60;;;22.10;90.30;;;;;;5073742;28;20182;-68
2022/11/18 01:16:54;;;;;;;2.47;0.50;;;22.10;92.10;;;;;;5073409;28;20203;-69
2022/11/18 01:19:22;;;;;;;2.80;0.63;;;22.00;92.20;;;;;;5073764;28;20196;-68
2022/11/18 01:21:50;;;;;;;1.20;0.63;;;22.20;88.70;;;;;;5073499;28;20182;-68
2022/11/18 01:24:18;;;;;;;2.60;1.00;;;22.40;92.50;;;;;;5073322;28;20182;-68
2022/11/18 01:26:46;;;;;;;2.57;0.80;;;22.50;89.80;;;;;;5073189;28;20194;-68
2022/11/18 01:29:14;;;;;;;4.00;0.63;;;22.40;90.70;;;;;;5073677;28;20198;-68
2022/11/18 01:31:42;;;;;;;2.13;0.60;;;22.40;93.40;;;;;;5073069;28;20180;-69
2022/11/18 01:34:10;;;;;;;2.37;0.50;;;22.20;96.80;;;;;;5073304;28;20182;-71
2022/11/18 01:36:37;;;;;;;2.73;0.73;;;22.10;98.20;;;;;;5073453;28;20353;-70
2022/11/18 01:39:05;;;;;;;4.17;1.07;;;22.00;99.90;;;;;;5073207;28;20178;-72
2022/11/18 01:41:35;;;;;;;3.20;0.63;;;21.90;99.90;;;;;;5073142;28;20180;-70
2022/11/18 01:44:05;;;;;;;2.03;0.43;;;22.10;98.70;;;;;;5073165;28;20624;-71
2022/11/18 01:46:34;;;;;;;6.10;0.70;;;22.50;99.90;;;;;;5073111;28;20207;-71
2022/11/18 01:49:13;;;;;;;2.83;0.83;;;23.00;95.70;;;;;;5073257;28;20542;-70
2022/11/18 01:51:57;;;;;;;4.40;0.57;;;23.90;93.20;;;;;;5073048;28;20211;-71
2022/11/18 01:54:36;;;;;;;1.33;0.77;;;23.50;92.50;;;;;;5073067;28;20179;-70
2022/11/18 01:57:11;;;;;;;2.20;0.57;;;24.60;93.80;;;;;;5073167;28;20189;-70
2022/11/18 01:59:43;;;;;;;2.80;1.00;;;24.00;91.50;;;;;;5073134;28;20207;-71
2022/11/18 02:02:13;;;;;;;1.07;0.60;;;23.20;92.50;;;;;;5072857;28;20168;-69
2022/11/18 02:04:44;;;;;;;2.33;0.70;;;24.10;92.00;;;;;;5073050;28;20310;-72
2022/11/18 02:07:14;;;;;;;1.07;0.53;;;24.40;92.10;;;;;;5072837;28;20207;-69
2022/11/18 02:09:43;;;;;;;3.13;0.60;;;25.00;90.30;;;;;;5073000;28;20201;-69
2022/11/18 02:12:11;;;;;;;3.63;0.70;;;25.10;90.70;;;;;;5072692;28;20176;-69
2022/11/18 02:14:45;;;;;;;2.90;0.80;;;25.60;94.20;;;;;;5072672;28;20226;-69
2022/11/18 02:17:22;;;;;;;2.47;0.50;;;25.80;91.10;;;;;;5072807;28;20171;-69
2022/11/18 02:20:08;;;;;;;2.60;0.50;;;26.30;81.30;;;;;;5075717;28;20214;-70
2022/11/18 02:22:51;;;;;;;2.23;0.67;;;26.30;93.30;;;;;;5076532;28;20197;-69
2022/11/18 02:25:34;;;;;;;1.13;0.40;;;26.60;81.30;;;;;;5076866;28;20625;-68
2022/11/18 02:28:22;;;;;;;2.13;0.60;;;26.80;84.70;;;;;;5092339;28;20242;-69
2022/11/18 02:30:58;;;;;;;3.07;1.10;;;26.80;85.70;;;;;;5076619;28;20172;-70
2022/11/18 02:33:47;;;;;;;2.67;1.00;;;27.10;76.40;;;;;;5076508;28;20254;-69
2022/11/18 02:36:27;;;;;;;2.40;0.50;;;27.40;74.40;;;;;;5076444;28;20526;-70
2022/11/18 02:39:04;;;;;;;2.53;0.60;;;26.80;75.30;;;;;;5076400;28;20172;-70
2022/11/18 02:41:36;;;;;;;1.63;0.63;;;25.80;72.70;;;;;;5076273;28;20175;-71
2022/11/18 02:44:20;;;;;;;1.83;0.70;;;25.00;81.30;;;;;;5076441;28;20687;-69
2022/11/18 02:46:52;;;;;;;0.83;0.53;;;24.60;86.60;;;;;;5076410;28;20168;-69
2022/11/18 02:49:46;;;;;;;5.83;1.90;;;24.60;91.70;;;;;;5076299;28;20176;-68
2022/11/18 02:52:16;;;;;;;3.43;1.10;;;24.80;82.20;;;;;;5076064;28;20618;-69
2022/11/18 02:54:46;;;;;;;2.47;0.57;;;25.00;80.60;;;;;;5076024;28;20179;-68
2022/11/18 02:57:16;;;;;;;0.77;0.50;;;25.30;83.30;;;;;;5076085;28;20183;-69
2022/11/18 02:59:43;;;;;;;2.73;0.70;;;25.50;88.40;;;;;;5076046;28;20204;-69
2022/11/18 03:02:17;;;;;;;2.80;0.70;;;24.90;82.40;;;;;;5076081;28;20186;-68
2022/11/18 03:04:54;;;;;;;1.50;0.63;;;24.60;87.90;;;;;;5075638;28;20219;-69
2022/11/18 03:07:34;;;;;;;1.53;0.77;;;24.80;88.70;;;;;;5075865;28;20679;-69
2022/11/18 03:10:02;;;;;;;1.87;0.60;;;25.90;86.20;;;;;;5076047;28;20172;-70
2022/11/18 03:12:38;;;;;;;4.37;0.80;;;25.90;85.30;;;;;;5076198;28;20187;-71
2022/11/18 03:15:24;;;;;;;1.83;0.47;;;25.80;84.60;;;;;;5075894;28;20529;-72
2022/11/18 03:18:07;;;;;;;3.37;0.53;;;25.50;83.60;;;;;;5076119;28;20180;-71
2022/11/18 03:20:52;;;;;;;3.40;0.97;;;25.20;89.10;;;;;;5076296;28;20233;-71
2022/11/18 03:23:40;;;;;;;2.07;0.73;;;24.80;88.50;;;;;;5075553;28;20179;-71
2022/11/18 03:26:16;;;;;;;4.90;0.90;;;24.60;92.20;;;;;;5075665;28;20595;-71
2022/11/18 03:28:52;;;;;;;2.83;0.53;;;24.50;93.80;;;;;;5076079;28;20183;-71
2022/11/18 03:31:28;;;;;;;4.17;0.80;;;24.40;94.50;;;;;;5074935;28;20179;-70
2022/11/18 03:34:34;;;;;;;4.30;0.67;;;24.70;91.80;;;;;;5075358;28;20270;-71
2022/11/18 03:37:06;;;;;;;3.87;0.80;;;25.20;89.00;;;;;;5075507;28;20186;-71
2022/11/18 03:39:38;;;;;;;3.23;0.90;;;24.70;91.20;;;;;;5075438;28;20578;-72
2022/11/18 03:42:09;;;;;;;5.53;0.93;;;24.50;93.00;;;;;;5075191;28;20255;-71
2022/11/18 03:44:40;;;;;;;1.13;0.50;;;24.40;92.60;;;;;;5090868;28;20183;-72
2022/11/18 03:47:26;;;;;;;3.10;0.90;;;24.30;93.40;;;;;;5075284;28;20175;-71
2022/11/18 03:49:59;;;;;;;2.77;0.90;;;24.70;92.10;;;;;;5075226;28;20175;-71
2022/11/18 03:52:31;;;;;;;3.77;0.67;;;25.20;93.60;;;;;;5075259;28;20176;-71
2022/11/18 03:55:04;;;;;;;4.50;0.77;;;24.60;95.60;;;;;;5074960;28;20212;-71
2022/11/18 03:58:03;;;;;;;4.77;0.77;;;24.20;98.90;;;;;;5074986;28;20176;-71
2022/11/18 04:00:37;;;;;;;4.67;0.93;;;23.70;99.40;;;;;;5064210;28;20281;-71
2022/11/18 04:03:05;;;;;;;3.97;1.00;;;23.20;99.90;;;;;;5074626;28;20235;-70
2022/11/18 04:05:38;;;;;;;4.23;0.93;;;23.10;99.90;;;;;;5074653;28;20672;-71
2022/11/18 04:08:24;;;;;;;4.13;1.10;;;23.00;99.90;;;;;;5073630;28;20256;-72
2022/11/18 04:11:00;;;;;;;3.87;0.97;;;22.80;99.90;;;;;;5074827;28;20171;-71
2022/11/18 04:13:32;;;;;;;2.30;0.70;;;22.60;99.90;;;;;;5074635;28;20185;-70
2022/11/18 04:16:00;;;;;;;3.77;0.90;;;23.40;99.90;;;;;;5074638;28;20170;-70
2022/11/18 04:18:28;;;;;;;3.33;0.70;;;23.50;99.90;;;;;;5073442;28;20271;-68
2022/11/18 04:20:55;;;;;;;2.47;0.60;;;23.50;99.90;;;;;;5074482;28;20239;-70
2022/11/18 04:23:23;;;;;;;2.70;0.70;;;24.10;99.90;;;;;;5074466;28;20179;-71
2022/11/18 04:25:50;;;;;;;4.20;0.87;;;24.30;99.90;;;;;;5074448;28;20274;-71
2022/11/18 04:28:17;;;;;;;3.97;0.97;;;24.50;99.90;;;;;;5074389;28;20213;-70
2022/11/18 04:30:45;;;;;;;5.33;0.80;;;24.10;99.90;;;;;;5074280;28;20176;-71
2022/11/18 04:33:12;;;;;;;4.13;1.03;;;23.70;99.90;;;;;;5074389;28;20266;-71
2022/11/18 04:35:39;;;;;;;2.90;0.80;;;23.30;99.90;;;;;;5074594;28;20221;-71
2022/11/18 04:38:07;;;;;;;6.50;0.90;;;22.80;99.90;;;;;;5074703;28;20172;-71
2022/11/18 04:40:34;;;;;;;4.03;0.70;;;22.40;99.90;;;;;;5074000;28;20211;-68
2022/11/18 04:43:01;;;;;;;3.70;0.60;;;22.30;99.90;;;;;;5072901;28;20187;-68
2022/11/18 04:45:29;;;;;;;5.73;0.90;;;22.30;99.90;;;;;;5073852;28;20176;-68
2022/11/18 04:47:56;;;;;;;5.00;0.83;;;22.90;99.90;;;;;;5073683;28;20254;-68
2022/11/18 04:50:25;;;;;;;2.30;0.80;;;23.00;99.90;;;;;;5074008;28;20180;-70
2022/11/18 04:52:52;;;;;;;6.33;0.90;;;23.20;99.90;;;;;;5073771;28;20183;-69
2022/11/18 04:55:20;;;;;;;2.90;0.57;;;23.40;99.90;;;;;;5073637;28;20186;-68
2022/11/18 04:57:47;;;;;;;4.87;0.60;;;24.00;99.90;;;;;;5073933;28;20503;-69
2022/11/18 05:00:15;;;;;;;2.80;0.73;;;24.50;99.90;;;;;;5073586;28;20209;-69
2022/11/18 05:02:42;;;;;;;2.17;0.60;;;24.60;99.90;;;;;;5073279;28;20226;-69
2022/11/18 05:05:10;;;;;;;6.57;0.73;;;24.80;99.90;;;;;;5073746;28;20308;-67
2022/11/18 05:07:37;;;;;;;3.60;0.60;;;24.80;99.90;;;;;;5073516;28;20175;-67
2022/11/18 05:10:05;;;;;;;5.40;0.77;;;24.80;99.90;;;;;;5073713;28;20182;-68
2022/11/18 05:12:48;;;;;;;5.57;0.70;;;24.80;99.90;;;;;;5073630;28;20210;-69
2022/11/18 05:15:23;;;;;;;3.47;0.80;;;25.00;99.90;;;;;;5073605;28;20170;-72
2022/11/18 05:17:50;;;;;;;2.73;0.60;;;25.20;99.90;;;;;;5073506;28;20175;-70
2022/11/18 05:20:18;;;;;;;5.13;0.80;;;25.20;99.90;;;;;;5073506;28;20278;-69
2022/11/18 05:22:47;;;;;;;3.13;0.57;;;25.30;99.90;;;;;;5073583;28;20263;-72
2022/11/18 05:25:14;;;;;;;4.60;0.90;;;25.40;99.90;;;;;;5073533;28;20186;-70
2022/11/18 05:27:41;;;;;;;0.80;0.50;;;25.20;98.60;;;;;;5073395;28;20669;-69
2022/11/18 05:30:09;;;;;;;1.90;0.73;;;25.00;99.50;;;;;;5073510;28;20184;-71
2022/11/18 05:32:37;;;;;;;4.07;0.60;;;24.70;99.90;;;;;;5073365;28;20229;-71
2022/11/18 05:35:08;;;;;;;2.60;0.60;;;24.20;99.90;;;;;;5073610;28;20176;-69
2022/11/18 05:37:35;;;;;;;2.97;0.70;;;24.40;99.90;;;;;;5073351;28;20172;-71
2022/11/18 05:40:07;;;;;;;4.10;0.60;;;24.60;99.90;;;;;;5073487;28;20219;-69
2022/11/18 05:45:20;;;;;;;1.80;0.67;;;23.70;99.90;;;;;;5073829;28;20175;-68
2022/11/18 05:47:59;;;;;;;4.53;0.90;;;23.30;99.90;;;;;;5073356;28;20178;-68
2022/11/18 05:50:27;;;;;;;2.20;0.50;;;22.60;99.90;;;;;;5073301;28;20660;-69
2022/11/18 05:52:54;;;;;;;2.37;0.73;;;22.40;99.90;;;;;;5073069;28;20182;-68
2022/11/18 05:55:39;;;;;;;5.33;0.83;;;22.70;99.90;;;;;;5076453;28;20228;-68
2022/11/18 05:58:06;;;;;;;4.00;0.50;;;22.80;99.90;;;;;;5077402;28;20176;-68
2022/11/18 06:00:34;;;;;;;3.57;0.57;;;23.40;99.90;;;;;;5077230;28;20211;-69
2022/11/18 06:03:03;;;;;;;3.10;0.63;;;23.60;99.90;;;;;;5092457;28;20738;-69
2022/11/18 06:05:31;;;;;;;2.30;0.50;;;23.70;99.90;;;;;;5077088;28;20178;-69
2022/11/18 06:07:58;;;;;;;2.20;0.70;;;23.70;99.90;;;;;;5076935;28;20262;-69
2022/11/18 06:10:33;;;;;;;2.00;0.50;;;23.60;99.90;;;;;;5077043;28;20218;-68
2022/11/18 06:13:07;;;;;;;2.17;0.63;;;23.20;99.90;;;;;;5077145;28;20171;-68
2022/11/18 06:15:39;;;;;;;4.87;0.80;;;22.60;99.90;;;;;;5075874;28;20584;-68
2022/11/18 06:18:28;;;;;;;1.90;0.73;;;22.30;99.90;;;;;;5076937;28;20172;-68
2022/11/18 06:21:03;;;;;;;1.70;0.70;;;22.00;99.90;;;;;;5076731;28;20223;-68
2022/11/18 06:23:36;;;;;;;3.90;0.90;;;21.70;99.90;;;;;;5076504;28;20178;-68
2022/11/18 06:26:04;;;;;;;1.97;0.73;;;21.80;99.90;;;;;;5076821;28;20221;-69
2022/11/18 06:28:32;;;;;;;2.03;0.70;;;22.10;99.90;;;;;;5075786;28;20702;-69
2022/11/18 06:30:59;;;;;;;4.03;0.73;;;22.50;99.90;;;;;;5076759;28;20266;-68
2022/11/18 06:33:27;;;;;;;2.20;0.80;;;22.70;99.90;;;;;;5076350;28;20176;-69
2022/11/18 06:35:54;;;;;;;6.27;1.07;;;23.00;99.90;;;;;;5076560;28;20611;-68
2022/11/18 06:38:24;;;;;;;3.20;0.70;;;23.00;99.90;;;;;;5076404;28;20190;-68
2022/11/18 06:40:51;;;;;;;1.80;0.60;;;22.90;99.90;;;;;;5076384;28;20582;-69
2022/11/18 06:48:51;;;;;;;1.87;0.60;;;21.90;99.90;;;;;;5076546;28;20182;-69
2022/11/18 06:51:19;;;;;;;3.40;0.70;;;22.20;99.90;;;;;;5076368;28;20258;-68
2022/11/18 06:53:47;;;;;;;3.03;0.53;;;22.10;99.90;;;;;;5076071;28;20186;-69
2022/11/18 06:56:15;;;;;;;1.30;0.70;;;22.20;99.90;;;;;;5076286;28;20208;-69
2022/11/18 06:58:43;;;;;;;1.20;0.60;;;22.30;99.90;;;;;;5076024;28;20176;-69
2022/11/18 07:01:15;;;;;;;1.80;0.90;;;21.90;99.90;;;;;;5075926;28;20211;-67
2022/11/18 07:03:44;;;;;;;3.17;1.23;;;21.60;99.90;;;;;;5075460;28;20309;-69
2022/11/18 07:06:14;;;;;;;4.37;0.80;;;21.30;99.90;;;;;;5075677;28;20218;-68
2022/11/18 07:08:42;;;;;;;2.77;0.60;;;21.20;99.90;;;;;;5075766;28;20180;-68
2022/11/18 07:11:12;;;;;;;4.10;0.70;;;21.40;99.90;;;;;;5075830;28;20179;-69
2022/11/18 07:13:40;;;;;;;6.73;1.23;;;20.90;99.90;;;;;;5075944;28;20173;-69
2022/11/18 07:16:13;;;;;;;2.63;0.50;;;20.80;99.90;;;;;;5074598;28;20638;-68
2022/11/18 07:18:43;;;;;;;3.27;0.80;;;21.00;99.90;;;;;;5075489;28;20168;-67
2022/11/18 07:21:22;;;;;;;4.23;0.77;;;21.10;99.90;;;;;;5075238;28;20576;-68
2022/11/18 07:23:50;;;;;;;2.83;0.77;;;21.30;99.90;;;;;;5075430;28;20174;-69
2022/11/18 07:26:18;;;;;;;4.10;0.50;;;21.30;99.90;;;;;;5075725;28;20680;-68
2022/11/18 07:28:45;;;;;;;2.03;0.80;;;21.10;99.90;;;;;;5075629;28;20660;-69
2022/11/18 07:31:19;;;;;;;3.30;0.70;;;20.80;99.90;;;;;;5090919;28;20183;-69
2022/11/18 07:33:47;;;;;;;2.63;0.73;;;20.70;99.90;;;;;;5075571;28;20168;-70
2022/11/18 07:36:20;;;;;;;4.13;0.80;;;20.80;99.90;;;;;;5075403;28;20181;-69
2022/11/18 07:38:47;;;;;;;1.63;0.53;;;20.80;99.90;;;;;;5075496;28;20581;-68
2022/11/18 07:41:20;;;;;;;2.67;0.80;;;20.80;99.90;;;;;;5075096;28;20211;-69
2022/11/18 07:43:49;;;;;;;2.50;0.70;;;20.80;99.90;;;;;;5090651;28;20210;-69
2022/11/18 07:46:26;;;;;;;4.67;0.70;;;20.80;99.90;;;;;;5075253;28;20178;-69
2022/11/18 07:48:56;;;;;;;1.93;0.50;;;20.60;99.90;;;;;;5075043;28;20182;-68
2022/11/18 07:51:26;;;;;;;6.53;1.00;;;20.60;99.90;;;;;;5075331;28;20196;-69
2022/11/18 07:53:54;;;;;;;4.00;0.57;;;20.50;99.90;;;;;;5075212;28;20265;-70
2022/11/18 07:56:23;;;;;;;3.17;0.70;;;20.40;99.90;;;;;;5074975;28;20575;-68
2022/11/18 07:58:55;;;;;;;4.60;0.83;;;20.40;99.90;;;;;;5073610;28;20554;-70
2022/11/18 08:01:27;;;;;;;0.87;0.70;;;20.30;99.90;;;;;;5074814;28;20213;-69
2022/11/18 08:03:55;;;;;;;2.47;0.90;;;20.20;99.90;;;;;;5089964;28;20689;-69
2022/11/18 08:06:22;;;;;;;4.90;0.97;;;20.00;99.90;;;;;;5074956;28;20606;-69
2022/11/18 08:08:50;;;;;;;4.23;0.80;;;19.90;99.90;;;;;;5090328;28;20173;-71
2022/11/18 08:11:20;;;;;;;2.83;0.63;;;19.80;99.90;;;;;;5074562;28;20179;-70
2022/11/18 08:13:50;;;;;;;2.47;0.80;;;19.70;99.90;;;;;;5074630;28;20274;-71
2022/11/18 08:16:23;;;;;;;5.37;0.90;;;19.50;99.90;;;;;;5089584;28;20188;-68
2022/11/18 08:18:51;;;;;;;4.70;0.97;;;19.30;99.90;;;;;;5075293;28;20237;-69
2022/11/18 08:21:22;;;;;;;9.30;1.67;;;19.10;99.90;;;;;;5074299;28;20222;-69
2022/11/18 08:23:58;;;;;;;4.13;1.00;;;18.90;99.90;;;;;;5074518;28;20207;-69
2022/11/18 08:26:26;;;;;;;6.73;0.87;;;18.80;99.90;;;;;;5074527;28;20176;-69
2022/11/18 08:28:53;;;;;;;3.23;0.90;;;18.70;99.90;;;;;;5074209;28;20210;-68
2022/11/18 08:31:24;;;;;;;1.80;0.83;;;18.70;99.90;;;;;;5074046;28;20180;-69
2022/11/18 08:33:56;;;;;;;11.20;1.30;;;18.50;99.90;;;;;;5074767;28;20190;-68
2022/11/18 08:36:26;;;;;;;4.40;1.00;;;18.40;99.90;;;;;;5074326;28;20175;-69
2022/11/18 08:39:00;;;;;;;3.90;0.80;;;18.40;99.90;;;;;;5073015;28;20660;-69
2022/11/18 08:41:37;;;;;;;1.97;0.73;;;18.30;99.90;;;;;;5074057;28;20215;-69
2022/11/18 08:44:06;;;;;;;2.67;1.00;;;18.20;99.90;;;;;;5073947;28;20167;-72
2022/11/18 08:46:34;;;;;;;4.70;1.20;;;18.20;99.90;;;;;;5073952;28;20172;-68
2022/11/18 08:49:04;;;;;;;4.93;1.73;;;18.10;99.90;;;;;;5074048;28;20614;-69
2022/11/18 08:51:32;;;;;;;7.10;1.20;;;18.00;99.90;;;;;;5074000;28;20168;-71
2022/11/18 08:53:59;;;;;;;3.30;1.03;;;18.00;99.90;;;;;;5073860;28;20179;-69
2022/11/18 08:56:27;;;;;;;8.07;1.37;;;17.90;99.90;;;;;;5089346;28;20184;-71
2022/11/18 08:58:55;;;;;;;6.03;1.00;;;17.90;99.90;;;;;;5073634;28;20263;-70
2022/11/18 09:01:24;;;;;;;9.60;1.10;;;17.80;99.90;;;;;;5073648;28;20269;-71
2022/11/18 09:03:52;;;;;;;5.87;1.17;;;17.70;99.90;;;;;;5072103;28;20235;-71
2022/11/18 09:06:23;;;;;;;4.60;1.17;;;17.60;99.90;;;;;;5073878;28;20180;-71
2022/11/18 09:08:57;;;;;;;4.20;1.30;;;17.50;99.90;;;;;;5073859;28;20183;-69
2022/11/18 09:11:29;;;;;;;6.27;1.07;;;17.50;99.90;;;;;;5073871;28;20172;-70
2022/11/18 09:13:58;;;;;;;6.57;1.40;;;17.50;99.90;;;;;;5074054;28;20181;-69
2022/11/18 09:16:29;;;;;;;8.50;2.00;;;17.40;99.90;;;;;;5074615;28;20521;-70
2022/11/18 09:18:57;;;;;;;5.37;1.60;;;17.40;99.90;;;;;;5073915;28;20224;-71
2022/11/18 09:21:25;;;;;;;3.27;1.20;;;17.30;99.90;;;;;;5073675;28;20239;-70
2022/11/18 09:23:53;;;;;;;3.70;1.37;;;17.30;99.90;;;;;;5088867;28;20263;-70
2022/11/18 09:26:25;;;;;;;3.57;1.10;;;17.30;99.90;;;;;;5073467;28;20188;-70
2022/11/18 09:28:57;;;;;;;2.70;1.07;;;17.20;99.90;;;;;;5073527;28;20235;-70
2022/11/18 09:31:24;;;;;;;4.97;1.63;;;17.20;99.90;;;;;;5073624;28;20207;-70
2022/11/18 09:33:51;;;;;;;10.70;1.47;;;17.10;99.90;;;;;;5073442;28;20172;-71
2022/11/18 09:36:25;;;;;;;6.63;1.00;;;17.10;99.90;;;;;;5073449;28;20180;-69
2022/11/18 09:38:54;;;;;;;3.00;0.90;;;17.00;99.90;;;;;;5074124;28;20302;-69
2022/11/18 09:41:47;;;;;;;4.83;1.07;;;17.00;99.90;;;;;;5073362;28;20207;-68
2022/11/18 09:44:35;;;;;;;5.93;1.33;;;17.00;99.90;;;;;;5073753;28;20539;-68
2022/11/18 09:47:27;;;;;;;5.63;1.40;;;16.90;99.90;;;;;;5073776;28;20183;-69
2022/11/18 09:50:09;;;;;;;3.87;1.17;;;16.80;99.90;;;;;;5073399;28;20172;-67
2022/11/18 09:53:02;;;;;;;8.97;1.10;;;16.70;99.90;;;;;;5073574;28;20191;-69
2022/11/18 09:55:31;;;;;;;8.30;1.40;;;16.60;99.90;;;;;;5070664;28;20221;-67
2022/11/18 09:57:59;;;;;;;3.63;1.17;;;16.60;99.90;;;;;;5073200;28;20204;-68
2022/11/18 10:00:32;;;;;;;5.00;1.60;;;16.50;99.90;;;;;;5073176;28;20273;-69
2022/11/18 10:03:08;;;;;;;3.30;1.10;;;16.60;99.90;;;;;;5072756;28;20677;-71
2022/11/18 10:06:05;;;;;;;5.50;1.10;;;16.60;99.90;;;;;;5073129;28;20225;-70
2022/11/18 10:09:06;;;;;;;5.73;1.00;;;16.50;99.90;;;;;;5073084;28;20180;-69
2022/11/18 10:12:32;;;;;;;3.63;1.20;;;16.60;99.90;;;;;;5073235;28;20172;-68
2022/11/18 10:15:22;;;;;;;5.63;1.13;;;16.50;99.90;;;;;;5050996;28;20705;-69
2022/11/18 10:17:58;;;;;;;11.77;1.47;;;16.40;99.90;;;;;;5051114;28;20251;-68
2022/11/18 10:20:37;;;;;;;9.77;1.63;;;16.30;99.90;;;;;;5066417;28;20227;-69
2022/11/18 10:23:16;;;;;;;4.20;1.20;;;16.30;99.90;;;;;;5072973;28;20167;-68
2022/11/18 10:25:44;;;;;;;7.57;1.57;;;16.30;99.90;;;;;;5073145;28;20269;-68
2022/11/18 10:28:29;;;;;;;6.07;1.20;;;16.20;99.90;;;;;;5072900;28;20670;-68
2022/11/18 10:31:09;;;;;;;11.83;1.77;;;16.20;99.90;;;;;;5088633;28;20275;-68
2022/11/18 10:33:37;;;;;;;4.07;1.60;;;16.10;99.90;;;;;;5072750;28;20172;-68
2022/11/18 10:36:17;;;;;;;4.60;1.20;;;16.10;99.90;;;;;;5072889;28;20183;-68
2022/11/18 10:38:45;;;;;;;5.33;1.30;;;16.00;99.90;;;;;;5072708;28;20171;-68
2022/11/18 10:41:18;;;;;;;4.57;1.50;;;16.00;99.90;;;;;;5075598;28;20306;-71
2022/11/18 10:43:55;;;;;;;4.67;1.23;;;15.90;99.90;;;;;;5076248;28;20176;-69
2022/11/18 10:46:34;;;;;;;6.30;1.50;;;15.90;99.90;;;;;;5076790;28;20270;-71
2022/11/18 10:49:13;;;;;;;4.20;1.27;;;15.90;99.90;;;;;;5075306;28;20183;-69
2022/11/18 10:51:45;;;;;;;4.67;1.60;;;15.80;99.90;;;;;;5076513;28;20672;-70
2022/11/18 10:54:23;;;;;;;4.57;1.50;;;15.80;99.90;;;;;;5076246;28;20237;-69
2022/11/18 10:56:56;;;;;;;6.43;1.90;;;15.80;99.90;;;;;;5076354;28;20176;-70
2022/11/18 10:59:26;;;;;;;6.20;1.67;;;15.80;99.90;;;;;;5076708;28;20210;-71
2022/11/18 11:02:01;;;;;;;8.80;1.53;;;15.80;99.90;;;;;;5091704;28;20656;-68
2022/11/18 11:04:30;;;;;;;6.30;1.83;;;15.80;99.90;;;;;;5076073;28;20272;-69
2022/11/18 11:06:58;;;;;;;5.10;1.43;;;15.70;99.90;;;;;;5091830;28;20176;-71
2022/11/18 11:09:28;;;;;;;7.67;1.57;;;15.80;99.90;;;;;;5075965;28;20533;-71
2022/11/18 11:11:56;;;;;;;6.43;1.73;;;15.80;99.90;;;;;;5076279;28;20182;-70
2022/11/18 11:14:26;;;;;;;10.10;2.60;;;15.90;99.90;;;;;;5075964;28;20207;-70
2022/11/18 11:16:57;;;;;;;4.97;1.80;;;15.90;99.90;;;;;;5076036;28;20176;-71
2022/11/18 11:19:36;;;;;;;9.00;1.53;;;15.80;99.90;;;;;;5075834;28;20664;-70
2022/11/18 11:22:09;;;;;;;4.93;1.50;;;15.80;99.90;;;;;;5075871;28;20229;-71
2022/11/18 11:24:36;;;;;;;6.17;1.50;;;15.70;99.90;;;;;;5091330;28;20656;-71
2022/11/18 11:27:31;;;;;;;3.97;1.30;;;15.70;99.90;;;;;;5075729;28;20186;-68
2022/11/18 11:30:21;;;;;;;4.63;1.50;;;15.70;99.90;;;;;;5075542;28;20202;-70
2022/11/18 11:33:20;;;;;;;6.90;1.37;;;15.60;99.90;;;;;;5075558;28;20533;-69
2022/11/18 11:35:54;;;;;;;5.10;1.37;;;15.60;99.90;;;;;;5071392;28;20685;-70
2022/11/18 11:38:39;;;;;;;4.87;1.53;;;15.50;99.90;;;;;;5075580;28;20177;-70
2022/11/18 11:41:21;;;;;;;3.53;1.13;;;15.40;99.90;;;;;;5075325;28;20214;-70
2022/11/18 11:44:27;;;;;;;3.17;1.23;;;15.40;99.90;;;;;;5075168;28;20643;-69
2022/11/18 11:50:53;;;;;;;4.67;1.20;;;15.20;99.90;;;;;;5075550;28;20186;-70
2022/11/18 11:53:47;;;;;;;2.90;0.90;;;15.10;99.90;;;;;;5064960;28;20208;-70
2022/11/18 11:56:51;;;;;;;4.20;1.30;;;15.00;99.90;;;;;;5075266;28;20218;-69
2022/11/18 11:59:36;;;;;;;3.93;1.20;;;15.00;99.90;;;;;;5075071;28;20670;-70
2022/11/18 12:02:19;;;;;;;8.43;1.60;;;15.00;99.90;;;;;;5075280;28;20248;-70
2022/11/18 12:04:52;;;;;;;3.33;1.70;;;14.90;99.90;;;;;;5073612;28;20230;-69
2022/11/18 12:07:24;;;;;;;6.17;1.50;;;14.80;99.90;;;;;;5075239;28;20218;-70
2022/11/18 12:10:19;;;;;;;3.53;1.47;;;14.80;99.90;;;;;;5075103;28;20186;-70
2022/11/18 12:13:16;;;;;;;10.23;1.40;;;14.70;99.90;;;;;;5074928;28;20182;-69
2022/11/18 12:16:02;;;;;;;4.90;1.30;;;14.70;99.90;;;;;;5090369;28;20273;-70
2022/11/18 12:19:02;;;;;;;3.70;1.47;;;14.70;99.90;;;;;;5075179;28;20183;-70
2022/11/18 12:21:45;;;;;;;3.87;1.40;;;14.60;99.90;;;;;;5062354;28;20220;-70
2022/11/18 12:24:31;;;;;;;3.67;1.47;;;14.60;99.90;;;;;;5074580;28;20182;-69
2022/11/18 12:27:02;;;;;;;6.53;1.70;;;14.60;99.90;;;;;;5074405;28;20191;-69
2022/11/18 12:29:57;;;;;;;8.43;1.40;;;14.50;99.90;;;;;;5074686;28;20179;-68
2022/11/18 12:32:31;;;;;;;3.33;1.40;;;14.50;99.90;;;;;;5071622;28;20187;-71
2022/11/18 12:35:13;;;;;;;4.53;1.80;;;14.40;99.90;;;;;;5074437;28;20232;-70
2022/11/18 12:37:53;;;;;;;3.90;1.53;;;14.40;99.90;;;;;;5074736;28;20172;-71
2022/11/18 12:40:47;;;;;;;5.73;1.67;;;14.50;99.90;;;;;;5074371;28;20214;-70
2022/11/18 12:43:48;;;;;;;4.10;1.60;;;14.50;99.90;;;;;;5073182;28;20187;-72
2022/11/18 12:46:30;;;;;;;6.13;1.40;;;14.40;99.90;;;;;;5074464;28;20170;-69
2022/11/18 12:49:17;;;;;;;3.83;1.80;;;14.30;99.90;;;;;;5074092;28;20204;-70
2022/11/18 12:51:45;;;;;;;7.13;1.73;;;14.30;99.90;;;;;;5073676;28;20179;-69
2022/11/18 12:54:30;;;;;;;5.27;1.80;;;14.30;99.90;;;;;;5073881;28;20233;-70
2022/11/18 12:57:27;;;;;;;3.67;1.80;;;14.30;99.90;;;;;;5074255;28;20530;-71
2022/11/18 12:59:54;;;;;;;6.73;1.90;;;14.30;99.90;;;;;;5073398;28;20570;-70
2022/11/18 13:02:27;;;;;;;4.63;1.53;;;14.20;99.90;;;;;;5073884;28;20183;-68
2022/11/18 13:05:08;;;;;;;4.30;1.67;;;14.20;99.90;;;;;;5073911;28;20194;-72
2022/11/18 13:10:33;;;;;;;5.80;1.87;;;14.20;99.90;;;;;;5074682;28;20186;-70
2022/11/18 13:13:02;;;;;;;4.23;1.90;;;14.20;99.90;;;;;;5073651;28;20186;-68
2022/11/18 13:18:19;;;;;;;7.87;2.27;;;14.20;99.90;;;;;;5073983;28;20235;-69
2022/11/18 13:20:57;;;;;;;8.20;2.00;;;14.10;99.90;;;;;;5073410;28;20214;-70
2022/11/18 13:26:23;;;;;;;5.87;1.70;;;14.00;99.90;;;;;;5073715;28;20662;-71
2022/11/18 13:29:08;;;;;;;6.37;2.13;;;14.00;99.90;;;;;;5073888;28;20190;-70
2022/11/18 13:31:51;;;;;;;4.20;1.60;;;13.90;99.90;;;;;;5074037;28;20561;-70
2022/11/18 13:34:22;;;;;;;6.10;2.27;;;13.90;99.90;;;;;;5073453;28;20202;-69
2022/11/18 13:36:51;;;;;;;11.93;2.03;;;13.90;99.90;;;;;;5073386;28;20548;-70
2022/11/18 13:39:26;;;;;;;3.30;1.80;;;13.80;99.90;;;;;;5073159;28;20177;-68
2022/11/18 13:42:14;;;;;;;8.23;2.20;;;13.80;99.90;;;;;;5073343;28;20204;-71
2022/11/18 13:44:52;;;;;;;8.13;2.00;;;13.70;99.90;;;;;;5073267;28;20763;-71
2022/11/18 13:47:57;;;;;;;12.10;2.30;;;13.60;99.90;;;;;;5073169;28;20492;-70
2022/11/18 13:50:50;;;;;;;8.30;2.77;;;13.60;99.90;;;;;;5073139;28;20547;-71